Time;durP1;ratioP1;P1;durP2;ratioP2;P2;SDS_P1;SDS_P2;PMS_P1;PMS_P2;Temp;Humidity;BMP_temperature;BMP_pressure;BME280_temperature;BME280_humidity;BME280_pressure;Samples;Min_cycle;Max_cycle;Signal;HPM_P1;HPM_P2
2021/01/14 00:00:28;;;;;;;17.00;2.07;;;5.30;99.90;;;;;;5064868;28;39076;-77
2021/01/14 00:02:54;;;;;;;11.77;2.00;;;5.30;99.90;;;;;;5049697;28;39872;-77
2021/01/14 00:05:21;;;;;;;8.90;2.67;;;5.30;99.90;;;;;;5059838;28;38438;-77
2021/01/14 00:07:49;;;;;;;14.57;2.00;;;5.30;99.90;;;;;;5072095;28;37031;-77
2021/01/14 00:10:15;;;;;;;20.53;2.53;;;5.00;99.90;;;;;;5071011;28;39369;-77
2021/01/14 00:12:43;;;;;;;17.77;2.13;;;4.60;99.90;;;;;;5070763;28;38012;-76
2021/01/14 00:15:11;;;;;;;17.33;2.60;;;4.40;99.90;;;;;;5075907;28;39976;-76
2021/01/14 00:17:37;;;;;;;19.63;2.80;;;4.30;99.90;;;;;;5073665;28;38194;-76
2021/01/14 00:20:10;;;;;;;15.73;2.27;;;4.20;99.90;;;;;;5061232;28;38853;-77
2021/01/14 00:22:36;;;;;;;20.13;2.40;;;4.20;99.90;;;;;;5054441;28;38515;-76
2021/01/14 00:25:05;;;;;;;17.17;2.40;;;4.10;99.90;;;;;;5061411;28;39101;-76
2021/01/14 00:27:31;;;;;;;22.87;3.27;;;4.10;99.90;;;;;;5075256;28;47254;-78
2021/01/14 00:29:57;;;;;;;22.03;3.17;;;4.00;99.90;;;;;;5072099;28;40646;-77
2021/01/14 00:32:23;;;;;;;22.00;2.70;;;4.00;99.90;;;;;;5052854;28;39502;-76
2021/01/14 00:34:49;;;;;;;15.17;2.57;;;4.00;99.90;;;;;;5055116;28;39705;-77
2021/01/14 00:40:00;;;;;;;13.77;2.27;;;4.00;99.90;;;;;;5060034;28;39717;-76
2021/01/14 00:42:26;;;;;;;18.43;3.47;;;4.00;99.90;;;;;;5061421;28;38289;-77
2021/01/14 00:44:52;;;;;;;17.17;2.47;;;4.00;99.90;;;;;;5057452;28;39820;-77
2021/01/14 00:47:18;;;;;;;17.13;2.83;;;4.00;99.90;;;;;;5057775;28;36614;-77
2021/01/14 00:49:44;;;;;;;20.00;3.70;;;4.00;99.90;;;;;;5059723;28;38701;-76
2021/01/14 00:52:11;;;;;;;15.33;2.30;;;4.00;99.90;;;;;;5078974;28;39039;-76
2021/01/14 00:54:41;;;;;;;15.17;3.23;;;4.00;99.90;;;;;;5078704;28;37066;-76
2021/01/14 00:57:09;;;;;;;17.57;2.90;;;4.00;99.90;;;;;;5072275;28;37980;-76
2021/01/14 00:59:38;;;;;;;15.33;2.63;;;4.00;99.90;;;;;;5073271;28;39127;-77
2021/01/14 01:02:05;;;;;;;14.87;3.00;;;4.00;99.90;;;;;;5080326;28;37935;-77
2021/01/14 01:04:31;;;;;;;12.20;2.20;;;3.90;99.90;;;;;;5074523;28;38489;-77
2021/01/14 01:06:57;;;;;;;13.17;2.13;;;4.00;99.90;;;;;;5059888;28;35020;-76
2021/01/14 01:09:24;;;;;;;18.13;1.87;;;3.90;99.90;;;;;;5073220;28;39342;-77
2021/01/14 01:11:50;;;;;;;11.20;1.80;;;3.80;99.90;;;;;;5088309;28;40095;-76
2021/01/14 01:14:16;;;;;;;9.50;1.80;;;3.60;99.90;;;;;;5070011;28;38199;-76
2021/01/14 01:16:42;;;;;;;16.40;1.77;;;3.60;99.90;;;;;;5073613;28;36928;-76
2021/01/14 01:19:08;;;;;;;15.13;2.40;;;3.50;99.90;;;;;;5079412;28;38675;-76
2021/01/14 01:21:34;;;;;;;15.47;2.10;;;3.50;99.90;;;;;;5082131;28;37294;-76
2021/01/14 01:24:00;;;;;;;14.17;2.40;;;3.40;99.90;;;;;;5099025;28;38246;-76
2021/01/14 01:26:26;;;;;;;21.13;2.47;;;3.40;99.90;;;;;;5089737;28;38009;-77
2021/01/14 01:28:53;;;;;;;9.80;1.40;;;3.40;99.90;;;;;;5076239;28;39619;-76
2021/01/14 01:31:19;;;;;;;10.23;1.47;;;3.40;99.90;;;;;;5079189;28;39724;-77
2021/01/14 01:33:45;;;;;;;12.57;2.13;;;3.30;99.90;;;;;;5056089;28;39265;-77
2021/01/14 01:36:13;;;;;;;7.20;1.50;;;3.30;99.90;;;;;;5058342;28;35937;-77
2021/01/14 01:38:39;;;;;;;10.67;1.47;;;3.30;99.90;;;;;;5059895;28;38423;-76
2021/01/14 01:41:06;;;;;;;8.43;1.17;;;3.20;99.90;;;;;;5088384;28;37905;-76
2021/01/14 01:43:32;;;;;;;8.17;1.30;;;3.20;99.90;;;;;;5080288;28;39370;-76
2021/01/14 01:46:01;;;;;;;8.50;1.13;;;3.20;99.90;;;;;;5069690;28;37922;-76
2021/01/14 01:48:27;;;;;;;8.17;1.30;;;3.20;99.90;;;;;;5085695;28;46867;-76
2021/01/14 01:50:59;;;;;;;9.57;1.30;;;3.20;99.90;;;;;;5080182;28;40089;-77
2021/01/14 01:53:26;;;;;;;12.87;3.07;;;3.10;99.90;;;;;;5075619;28;36855;-76
2021/01/14 01:55:52;;;;;;;12.80;1.67;;;3.10;99.90;;;;;;5083562;28;36884;-77
2021/01/14 01:58:22;;;;;;;8.37;1.60;;;3.10;99.90;;;;;;5074686;28;39915;-76
2021/01/14 02:00:49;;;;;;;8.27;1.10;;;3.10;99.90;;;;;;5052554;28;39274;-77
2021/01/14 02:03:16;;;;;;;11.77;1.70;;;3.10;99.90;;;;;;5048572;28;37794;-77
2021/01/14 02:05:42;;;;;;;7.47;1.70;;;3.10;99.90;;;;;;5054204;28;37743;-77
2021/01/14 02:08:19;;;;;;;6.77;1.20;;;3.00;99.90;;;;;;5073075;28;39359;-77
2021/01/14 02:11:21;;;;;;;8.53;1.60;;;3.00;99.90;;;;;;5066589;28;38600;-77
2021/01/14 02:14:18;;;;;;;13.93;1.50;;;3.00;99.90;;;;;;5049668;28;49620;-77
2021/01/14 02:16:45;;;;;;;14.70;1.70;;;2.90;99.90;;;;;;5072284;28;50009;-76
2021/01/14 02:19:20;;;;;;;6.60;1.40;;;2.90;99.90;;;;;;5088467;28;38256;-77
2021/01/14 02:21:50;;;;;;;12.73;1.17;;;2.90;99.90;;;;;;5077995;28;40335;-77
2021/01/14 02:24:26;;;;;;;13.13;1.27;;;2.90;99.90;;;;;;5061739;28;38477;-76
2021/01/14 02:26:53;;;;;;;9.77;1.50;;;2.80;99.90;;;;;;5072146;28;38126;-76
2021/01/14 02:29:20;;;;;;;8.90;1.40;;;2.80;99.90;;;;;;5064434;28;40704;-77
2021/01/14 02:31:46;;;;;;;15.83;2.57;;;2.70;99.90;;;;;;5059341;28;38663;-77
2021/01/14 02:34:12;;;;;;;16.03;2.90;;;2.70;99.90;;;;;;5085413;28;37890;-77
2021/01/14 02:36:38;;;;;;;5.07;1.23;;;2.70;99.90;;;;;;5080363;28;37984;-77
2021/01/14 02:39:05;;;;;;;13.00;1.43;;;2.70;99.90;;;;;;5089152;28;39059;-76
2021/01/14 02:41:31;;;;;;;12.13;1.00;;;2.70;99.90;;;;;;5076177;28;40009;-78
2021/01/14 02:43:57;;;;;;;9.13;1.40;;;2.70;99.90;;;;;;5082020;28;39085;-77
2021/01/14 02:46:24;;;;;;;7.53;1.37;;;2.70;99.90;;;;;;5080436;28;37990;-77
2021/01/14 02:49:07;;;;;;;6.73;1.13;;;2.70;99.90;;;;;;5073394;28;39749;-77
2021/01/14 02:51:47;;;;;;;5.10;1.40;;;2.70;99.90;;;;;;5079584;28;47488;-77
2021/01/14 02:54:15;;;;;;;5.20;0.83;;;2.70;99.90;;;;;;5079550;28;38561;-77
2021/01/14 02:56:43;;;;;;;10.87;1.50;;;2.80;99.90;;;;;;5075872;28;38653;-77
2021/01/14 02:59:09;;;;;;;3.47;0.90;;;2.80;99.90;;;;;;5078103;28;39799;-77
2021/01/14 03:01:36;;;;;;;4.37;0.90;;;2.80;99.90;;;;;;5079038;28;35423;-77
2021/01/14 03:04:02;;;;;;;7.07;0.90;;;2.70;99.90;;;;;;5084042;28;38328;-77
2021/01/14 03:06:28;;;;;;;7.43;1.07;;;2.70;99.90;;;;;;5087257;28;36188;-78
2021/01/14 03:08:54;;;;;;;7.47;1.00;;;2.70;99.90;;;;;;5065311;28;38029;-77
2021/01/14 03:11:27;;;;;;;5.63;1.00;;;2.70;99.90;;;;;;5096234;28;39406;-77
2021/01/14 03:13:54;;;;;;;5.40;0.90;;;2.70;99.90;;;;;;5068358;28;38800;-77
2021/01/14 03:16:21;;;;;;;8.80;1.23;;;2.70;99.90;;;;;;5072720;28;37364;-77
2021/01/14 03:18:50;;;;;;;11.07;1.80;;;2.70;99.90;;;;;;5072601;28;37734;-77
2021/01/14 03:21:18;;;;;;;14.37;1.20;;;2.60;99.90;;;;;;5077064;28;39745;-77
2021/01/14 03:23:44;;;;;;;6.10;1.03;;;2.60;99.90;;;;;;5067118;28;37986;-77
2021/01/14 03:26:12;;;;;;;9.57;1.00;;;2.70;99.90;;;;;;5070432;28;39178;-78
2021/01/14 03:28:39;;;;;;;11.90;1.40;;;2.60;99.90;;;;;;5084358;28;40565;-77
2021/01/14 03:31:05;;;;;;;12.03;1.50;;;2.60;99.90;;;;;;5075343;28;39630;-77
2021/01/14 03:33:32;;;;;;;5.07;1.03;;;2.60;99.90;;;;;;5080761;28;37381;-77
2021/01/14 03:35:58;;;;;;;11.80;1.30;;;2.60;99.90;;;;;;5089842;28;37093;-77
2021/01/14 03:38:25;;;;;;;5.60;0.97;;;2.60;99.90;;;;;;5080949;28;39316;-77
2021/01/14 03:40:51;;;;;;;7.40;1.00;;;2.60;99.90;;;;;;5090903;28;38181;-77
2021/01/14 03:43:17;;;;;;;5.27;0.77;;;2.60;99.90;;;;;;5078838;28;37870;-77
2021/01/14 03:45:43;;;;;;;4.87;1.07;;;2.60;99.90;;;;;;5081153;28;37906;-77
2021/01/14 03:48:10;;;;;;;7.53;1.03;;;2.60;99.90;;;;;;5093629;28;38898;-77
2021/01/14 03:50:36;;;;;;;7.23;1.57;;;2.60;99.90;;;;;;5090847;28;37688;-77
2021/01/14 03:53:02;;;;;;;7.73;1.27;;;2.60;99.90;;;;;;5092732;28;38881;-77
2021/01/14 03:55:28;;;;;;;8.60;1.23;;;2.60;99.90;;;;;;5092575;27;40112;-77
2021/01/14 03:57:54;;;;;;;4.70;0.80;;;2.60;99.90;;;;;;5090339;28;38748;-77
2021/01/14 04:00:20;;;;;;;9.17;1.10;;;2.70;99.90;;;;;;5090336;28;37461;-77
2021/01/14 04:02:46;;;;;;;8.37;1.37;;;2.60;99.90;;;;;;5080538;28;38044;-76
2021/01/14 04:05:12;;;;;;;9.37;1.20;;;2.60;99.90;;;;;;5095163;28;37062;-77
2021/01/14 04:07:39;;;;;;;8.20;1.00;;;2.60;99.90;;;;;;5080592;28;38118;-77
2021/01/14 04:10:05;;;;;;;15.17;1.63;;;2.50;99.90;;;;;;5066513;28;40878;-77
2021/01/14 04:12:31;;;;;;;8.80;1.20;;;2.50;99.90;;;;;;5090968;28;36938;-77
2021/01/14 04:14:58;;;;;;;5.67;1.13;;;2.50;99.90;;;;;;5084004;28;37579;-76
2021/01/14 04:17:27;;;;;;;10.87;1.30;;;2.50;99.90;;;;;;5062059;28;38666;-77
2021/01/14 04:19:54;;;;;;;7.13;1.37;;;2.50;99.90;;;;;;5094955;28;38511;-77
2021/01/14 04:22:20;;;;;;;10.83;1.63;;;2.50;99.90;;;;;;5094616;28;38233;-76
2021/01/14 04:24:46;;;;;;;7.43;1.10;;;2.50;99.90;;;;;;5082708;28;36883;-76
2021/01/14 04:27:12;;;;;;;10.17;1.47;;;2.50;99.90;;;;;;5066256;28;40955;-77
2021/01/14 04:29:38;;;;;;;7.90;1.20;;;2.50;99.90;;;;;;5082431;28;37632;-77
2021/01/14 04:32:04;;;;;;;9.07;1.37;;;2.50;99.90;;;;;;5089870;28;38691;-76
2021/01/14 04:34:31;;;;;;;5.30;1.03;;;2.50;99.90;;;;;;5074271;28;37132;-77
2021/01/14 04:37:01;;;;;;;10.27;1.40;;;2.50;99.90;;;;;;5083993;28;39413;-76
2021/01/14 04:39:29;;;;;;;9.60;1.33;;;2.50;99.90;;;;;;5093993;28;49210;-76
2021/01/14 04:41:57;;;;;;;6.47;1.20;;;2.50;99.90;;;;;;5074832;28;37034;-76
2021/01/14 04:44:27;;;;;;;7.30;1.27;;;2.40;99.90;;;;;;5081785;28;36346;-77
2021/01/14 04:47:06;;;;;;;8.40;1.23;;;2.40;99.90;;;;;;5087401;28;38370;-77
2021/01/14 04:49:32;;;;;;;9.03;1.33;;;2.40;99.90;;;;;;5093860;28;48140;-77
2021/01/14 04:52:04;;;;;;;10.03;1.73;;;2.30;99.90;;;;;;5086879;28;39177;-77
2021/01/14 04:54:34;;;;;;;12.13;3.20;;;2.40;99.90;;;;;;5112822;28;48968;-76
2021/01/14 04:57:04;;;;;;;6.67;1.37;;;2.40;99.90;;;;;;5071226;28;39140;-77
2021/01/14 04:59:34;;;;;;;20.10;1.60;;;2.40;99.90;;;;;;5070815;28;47216;-77
2021/01/14 05:02:01;;;;;;;5.40;1.03;;;2.40;99.90;;;;;;5074026;28;35607;-76
2021/01/14 05:04:31;;;;;;;11.77;1.13;;;2.40;99.90;;;;;;5077435;28;48645;-77
2021/01/14 05:06:58;;;;;;;9.77;2.00;;;2.40;99.90;;;;;;5079995;28;38369;-76
2021/01/14 05:09:25;;;;;;;9.43;1.20;;;2.40;99.90;;;;;;5080180;28;39370;-76
2021/01/14 05:11:57;;;;;;;5.80;1.50;;;2.30;99.90;;;;;;5068534;28;36707;-76
2021/01/14 05:14:23;;;;;;;10.33;1.70;;;2.30;99.90;;;;;;5091418;28;39650;-76
2021/01/14 05:16:50;;;;;;;7.53;1.70;;;2.30;99.90;;;;;;5082642;28;40190;-75
2021/01/14 05:19:16;;;;;;;8.87;2.20;;;2.30;99.90;;;;;;5079394;28;39833;-77
2021/01/14 05:21:45;;;;;;;12.20;2.33;;;2.30;99.90;;;;;;5096518;28;37646;-77
2021/01/14 05:24:15;;;;;;;8.93;1.57;;;2.30;99.90;;;;;;5092832;28;37267;-76
2021/01/14 05:26:42;;;;;;;7.97;1.40;;;2.30;99.90;;;;;;5089446;28;38886;-76
2021/01/14 05:29:12;;;;;;;8.57;1.67;;;2.30;99.90;;;;;;5081157;28;37673;-76
2021/01/14 05:31:38;;;;;;;10.47;1.80;;;2.30;99.90;;;;;;5084977;28;38671;-76
2021/01/14 05:34:04;;;;;;;8.83;1.50;;;2.40;99.90;;;;;;5074337;28;38258;-77
2021/01/14 05:36:49;;;;;;;5.27;1.17;;;2.40;99.90;;;;;;5079441;28;38580;-76
2021/01/14 05:39:16;;;;;;;13.57;2.07;;;2.40;99.90;;;;;;5079949;28;37882;-77
2021/01/14 05:41:43;;;;;;;5.80;1.33;;;2.40;99.90;;;;;;5078512;28;37585;-76
2021/01/14 05:44:09;;;;;;;9.53;1.30;;;2.40;99.90;;;;;;5081080;28;38022;-76
2021/01/14 05:46:36;;;;;;;9.67;2.07;;;2.40;99.90;;;;;;5076299;28;40313;-76
2021/01/14 05:49:04;;;;;;;9.73;2.07;;;2.40;99.90;;;;;;5070740;28;37507;-77
2021/01/14 05:51:33;;;;;;;8.03;2.33;;;2.40;99.90;;;;;;5080834;28;37516;-77
2021/01/14 05:54:02;;;;;;;14.67;2.90;;;2.30;99.90;;;;;;5086254;28;37126;-77
2021/01/14 05:56:47;;;;;;;10.33;3.10;;;2.30;99.90;;;;;;5089275;28;48738;-76
2021/01/14 05:59:18;;;;;;;12.30;2.53;;;2.30;99.90;;;;;;5081704;28;38996;-77
2021/01/14 06:01:55;;;;;;;6.17;1.97;;;2.30;99.90;;;;;;5080710;28;36867;-77
2021/01/14 06:04:24;;;;;;;11.53;1.90;;;2.30;99.90;;;;;;5079364;28;35832;-76
2021/01/14 06:06:53;;;;;;;11.43;2.37;;;2.30;99.90;;;;;;5081552;28;38049;-77
2021/01/14 06:09:21;;;;;;;5.20;1.20;;;2.20;99.90;;;;;;5082402;28;38348;-77
2021/01/14 06:11:49;;;;;;;5.23;1.47;;;2.20;99.90;;;;;;5063311;28;38393;-77
2021/01/14 06:14:24;;;;;;;17.23;2.10;;;2.20;99.90;;;;;;5062087;28;39401;-77
2021/01/14 06:16:51;;;;;;;7.43;0.97;;;2.10;99.90;;;;;;5079636;28;39038;-77
2021/01/14 06:19:17;;;;;;;10.30;2.23;;;2.00;99.90;;;;;;5074518;28;39454;-76
2021/01/14 06:21:48;;;;;;;17.80;1.77;;;2.00;99.90;;;;;;5078036;28;36852;-76
2021/01/14 06:24:25;;;;;;;15.70;1.93;;;2.00;99.90;;;;;;5075706;28;37494;-77
2021/01/14 06:26:56;;;;;;;9.07;1.77;;;2.00;99.90;;;;;;5089565;28;37316;-76
2021/01/14 06:29:27;;;;;;;9.07;2.07;;;1.90;99.90;;;;;;5064819;28;38431;-77
2021/01/14 06:32:13;;;;;;;8.57;2.00;;;1.90;99.90;;;;;;5086129;28;38140;-77
2021/01/14 06:34:50;;;;;;;8.83;1.63;;;1.90;99.90;;;;;;5079379;28;48420;-76
2021/01/14 06:37:24;;;;;;;9.67;1.67;;;1.90;99.90;;;;;;5088102;28;38952;-77
2021/01/14 06:39:54;;;;;;;5.53;1.50;;;1.90;99.90;;;;;;5080627;28;38432;-77
2021/01/14 06:42:29;;;;;;;7.17;2.07;;;1.90;99.90;;;;;;5095371;28;39315;-76
2021/01/14 06:44:55;;;;;;;6.77;2.20;;;1.90;99.90;;;;;;5083934;28;37059;-76
2021/01/14 06:47:42;;;;;;;11.17;2.70;;;1.90;99.90;;;;;;5074220;28;40138;-76
2021/01/14 06:50:27;;;;;;;16.40;2.30;;;2.00;99.90;;;;;;5060171;28;38096;-77
2021/01/14 06:53:05;;;;;;;8.53;1.87;;;2.00;99.90;;;;;;5076196;28;39509;-76
2021/01/14 06:55:34;;;;;;;8.37;1.70;;;2.10;99.90;;;;;;5092826;28;48844;-76
2021/01/14 06:58:13;;;;;;;13.50;2.80;;;2.10;99.90;;;;;;5086307;28;41051;-77
2021/01/14 07:00:47;;;;;;;11.23;2.53;;;2.10;99.90;;;;;;5075600;28;47673;-76
2021/01/14 07:03:13;;;;;;;7.67;2.40;;;2.10;99.90;;;;;;5088439;28;38229;-76
2021/01/14 07:06:06;;;;;;;11.60;2.30;;;2.10;99.90;;;;;;5076552;28;38334;-77
2021/01/14 07:08:41;;;;;;;14.57;4.45;;;2.20;99.90;;;;;;5059450;28;46052;-77
2021/01/14 07:11:18;;;;;;;5.93;2.13;;;2.20;99.90;;;;;;5075319;28;40172;-77
2021/01/14 07:13:48;;;;;;;8.50;1.97;;;2.20;99.90;;;;;;5083713;28;38831;-77
2021/01/14 07:16:27;;;;;;;14.70;2.70;;;2.20;99.90;;;;;;5072547;28;37664;-78
2021/01/14 07:18:55;;;;;;;12.70;2.47;;;2.20;99.90;;;;;;5086947;27;37612;-77
2021/01/14 07:21:36;;;;;;;12.93;3.03;;;2.20;99.90;;;;;;5088477;27;38931;-77
2021/01/14 07:24:05;;;;;;;10.77;2.73;;;2.20;99.90;;;;;;5088297;27;37800;-78
2021/01/14 07:26:33;;;;;;;16.53;2.90;;;2.30;99.90;;;;;;5080666;28;38263;-77
2021/01/14 07:29:05;;;;;;;10.70;2.93;;;2.30;99.90;;;;;;5070729;28;37900;-77
2021/01/14 07:31:31;;;;;;;14.40;3.07;;;2.40;99.90;;;;;;5083615;28;48180;-76
2021/01/14 07:34:32;;;;;;;13.00;2.40;;;2.40;99.90;;;;;;5077609;28;38124;-76
2021/01/14 07:36:59;;;;;;;13.60;2.77;;;2.40;99.90;;;;;;5090319;27;48513;-77
2021/01/14 07:39:43;;;;;;;10.00;2.43;;;2.40;99.90;;;;;;5089941;28;40918;-77
2021/01/14 07:42:11;;;;;;;8.73;1.93;;;2.40;99.90;;;;;;5091982;27;38265;-77
2021/01/14 07:44:37;;;;;;;8.93;2.13;;;2.50;99.90;;;;;;5060098;28;38958;-77
2021/01/14 07:47:05;;;;;;;9.03;2.47;;;2.50;99.90;;;;;;5075794;28;37857;-78
2021/01/14 07:49:31;;;;;;;11.77;3.10;;;2.50;99.90;;;;;;5086239;28;40000;-76
2021/01/14 07:51:58;;;;;;;11.17;1.90;;;2.50;99.90;;;;;;5072325;28;40049;-78
2021/01/14 07:54:25;;;;;;;14.03;2.10;;;2.50;99.90;;;;;;5090391;27;37830;-77
2021/01/14 07:56:52;;;;;;;8.63;2.00;;;2.50;99.90;;;;;;5087681;28;38169;-78
2021/01/14 07:59:31;;;;;;;9.00;2.27;;;2.50;99.90;;;;;;5092552;28;38640;-78
2021/01/14 08:02:01;;;;;;;19.57;2.40;;;2.60;99.90;;;;;;5073529;28;39340;-77
2021/01/14 08:04:28;;;;;;;10.50;2.70;;;2.60;99.90;;;;;;5076476;28;46838;-77
2021/01/14 08:06:54;;;;;;;7.97;1.80;;;2.70;99.90;;;;;;5063678;28;36718;-77
2021/01/14 08:09:21;;;;;;;12.70;2.17;;;2.70;99.90;;;;;;5064670;28;38201;-78
2021/01/14 08:11:47;;;;;;;20.60;3.43;;;2.80;99.90;;;;;;5086708;28;39320;-77
2021/01/14 08:14:17;;;;;;;12.00;2.03;;;2.80;99.90;;;;;;5073148;28;38788;-77
2021/01/14 08:16:47;;;;;;;7.73;1.83;;;2.90;99.90;;;;;;5078450;28;37722;-78
2021/01/14 08:19:17;;;;;;;10.43;1.87;;;2.90;99.90;;;;;;5079940;28;39561;-78
2021/01/14 08:22:05;;;;;;;7.23;1.70;;;2.90;99.90;;;;;;5076087;28;38638;-77
2021/01/14 08:24:38;;;;;;;8.90;1.60;;;2.90;99.90;;;;;;5077083;28;47130;-77
2021/01/14 08:27:22;;;;;;;15.43;1.87;;;3.00;99.90;;;;;;5065866;28;37223;-77
2021/01/14 08:30:01;;;;;;;7.97;1.33;;;3.00;99.90;;;;;;5077911;28;39525;-77
2021/01/14 08:32:33;;;;;;;8.13;1.80;;;3.00;99.90;;;;;;5072463;28;39058;-79
2021/01/14 08:35:01;;;;;;;5.53;1.77;;;3.10;99.90;;;;;;5081269;28;39010;-77
2021/01/14 08:37:38;;;;;;;9.80;1.80;;;3.10;99.90;;;;;;5098577;28;36964;-77
2021/01/14 08:40:08;;;;;;;8.20;1.60;;;3.10;99.90;;;;;;5076879;28;37541;-77
2021/01/14 08:42:39;;;;;;;6.93;1.63;;;3.10;99.90;;;;;;5077068;28;39169;-77
2021/01/14 08:45:13;;;;;;;10.43;1.80;;;3.10;99.90;;;;;;5087601;28;38976;-77
2021/01/14 08:47:53;;;;;;;8.13;1.87;;;3.10;99.90;;;;;;5091370;28;37858;-77
2021/01/14 08:50:35;;;;;;;6.77;1.37;;;3.20;99.90;;;;;;5077747;28;39282;-78
2021/01/14 08:53:27;;;;;;;7.07;1.58;;;3.20;99.90;;;;;;5084572;28;39812;-77
2021/01/14 08:55:57;;;;;;;4.37;1.50;;;3.20;99.90;;;;;;5072520;28;38450;-76
2021/01/14 08:58:38;;;;;;;6.83;1.50;;;3.30;99.90;;;;;;5083959;27;36882;-77
2021/01/14 09:01:24;;;;;;;10.70;1.30;;;3.30;99.90;;;;;;5070363;28;40388;-76
2021/01/14 09:03:54;;;;;;;12.27;1.70;;;3.30;99.90;;;;;;5073512;28;37812;-76
2021/01/14 09:06:38;;;;;;;8.37;1.40;;;3.30;99.90;;;;;;5081052;28;37243;-77
2021/01/14 09:09:13;;;;;;;7.80;1.33;;;3.30;99.90;;;;;;5081027;28;37143;-77
2021/01/14 09:11:40;;;;;;;11.57;2.20;;;3.30;99.90;;;;;;5090970;28;37672;-77
2021/01/14 09:14:10;;;;;;;5.80;1.63;;;3.30;99.90;;;;;;5079131;28;37230;-77
2021/01/14 09:16:38;;;;;;;6.87;1.60;;;3.30;99.90;;;;;;5077581;28;38014;-77
2021/01/14 09:19:20;;;;;;;8.93;1.60;;;3.40;99.90;;;;;;5079723;28;36110;-77
2021/01/14 09:21:47;;;;;;;10.95;1.45;;;3.40;99.90;;;;;;5076354;28;38042;-77
2021/01/14 09:24:14;;;;;;;8.90;1.60;;;3.30;99.90;;;;;;5064729;27;37944;-77
2021/01/14 09:26:42;;;;;;;11.93;2.40;;;3.40;99.90;;;;;;5066336;28;38560;-77
2021/01/14 09:29:13;;;;;;;6.13;1.47;;;3.40;99.90;;;;;;5078242;28;37230;-77
2021/01/14 09:31:43;;;;;;;7.37;1.57;;;3.40;99.90;;;;;;5076081;28;40042;-77
2021/01/14 09:34:12;;;;;;;9.50;1.30;;;3.40;99.90;;;;;;5072155;28;37607;-77
2021/01/14 09:36:39;;;;;;;12.07;1.70;;;3.40;99.90;;;;;;5095840;28;38494;-77
2021/01/14 09:39:07;;;;;;;7.23;1.50;;;3.40;99.90;;;;;;5074937;28;36185;-77
2021/01/14 09:41:42;;;;;;;6.43;1.60;;;3.40;99.90;;;;;;5060792;28;39137;-76
2021/01/14 09:44:09;;;;;;;6.53;1.80;;;3.40;99.90;;;;;;5066918;27;37837;-75
2021/01/14 09:46:41;;;;;;;8.60;1.50;;;3.50;99.90;;;;;;5073279;28;38053;-78
2021/01/14 09:49:09;;;;;;;9.33;1.97;;;3.50;99.90;;;;;;5083571;28;36629;-77
2021/01/14 09:51:37;;;;;;;8.33;1.90;;;3.60;99.90;;;;;;5083299;27;38339;-80
2021/01/14 09:54:05;;;;;;;9.50;1.60;;;3.60;99.90;;;;;;5080206;27;39564;-78
2021/01/14 09:56:37;;;;;;;8.90;1.70;;;3.60;99.90;;;;;;5081177;28;38741;-78
2021/01/14 09:59:14;;;;;;;11.15;1.60;;;3.60;99.90;;;;;;5095484;28;37009;-76
2021/01/14 10:01:43;;;;;;;7.83;1.83;;;3.70;99.90;;;;;;5081553;28;47406;-76
2021/01/14 10:04:14;;;;;;;7.53;1.60;;;3.70;99.90;;;;;;5072455;28;37420;-77
2021/01/14 10:06:55;;;;;;;9.10;1.97;;;3.80;99.90;;;;;;5075476;28;39314;-76
2021/01/14 10:09:21;;;;;;;6.83;1.77;;;3.80;99.90;;;;;;5057221;28;36951;-77
2021/01/14 10:11:48;;;;;;;5.60;1.43;;;3.90;99.90;;;;;;5076673;28;37621;-77
2021/01/14 10:14:21;;;;;;;8.57;1.63;;;3.80;99.90;;;;;;5094894;28;39476;-76
2021/01/14 10:16:48;;;;;;;12.63;1.83;;;3.80;99.90;;;;;;5094264;28;41772;-76
2021/01/14 10:19:20;;;;;;;8.23;1.83;;;3.90;99.90;;;;;;5073152;28;36699;-79
2021/01/14 10:21:48;;;;;;;9.53;1.83;;;3.90;99.90;;;;;;5094392;28;39858;-77
2021/01/14 10:24:25;;;;;;;7.27;1.80;;;3.90;99.90;;;;;;5061211;28;41474;-75
2021/01/14 10:26:52;;;;;;;14.67;1.63;;;3.90;99.90;;;;;;5081238;28;38256;-76
2021/01/14 10:29:40;;;;;;;9.37;1.67;;;3.90;99.90;;;;;;5062270;28;37100;-77
2021/01/14 10:32:22;;;;;;;4.53;1.30;;;3.80;99.90;;;;;;5068878;28;38054;-76
2021/01/14 10:34:51;;;;;;;4.53;1.58;;;3.80;99.90;;;;;;5073514;28;38916;-75
2021/01/14 10:37:35;;;;;;;12.40;1.57;;;3.80;99.90;;;;;;5086117;28;36911;-77
2021/01/14 10:40:15;;;;;;;8.63;1.77;;;3.70;99.90;;;;;;5099914;28;37074;-76
2021/01/14 10:42:47;;;;;;;6.73;1.43;;;3.80;99.90;;;;;;5082212;28;46886;-76
2021/01/14 10:45:23;;;;;;;5.40;1.27;;;3.80;99.90;;;;;;5092796;28;38854;-76
2021/01/14 10:47:50;;;;;;;5.90;1.63;;;3.90;99.90;;;;;;5092122;28;38384;-77
2021/01/14 10:50:27;;;;;;;8.30;1.53;;;3.80;99.90;;;;;;5082711;28;36981;-76
2021/01/14 10:53:02;;;;;;;6.23;1.20;;;3.70;99.90;;;;;;5089126;28;39747;-76
2021/01/14 10:55:28;;;;;;;5.53;1.33;;;3.60;99.90;;;;;;5084667;28;47537;-76
2021/01/14 10:57:56;;;;;;;13.40;2.53;;;3.60;99.90;;;;;;5083919;28;37150;-76
2021/01/14 11:00:28;;;;;;;8.63;1.30;;;3.60;99.90;;;;;;5091286;27;37097;-77
2021/01/14 11:03:02;;;;;;;3.53;1.20;;;3.60;99.90;;;;;;5082284;28;39686;-77
2021/01/14 11:05:43;;;;;;;1.60;0.90;;;3.60;99.90;;;;;;5090612;28;48031;-77
2021/01/14 11:08:14;;;;;;;5.93;1.60;;;3.60;99.90;;;;;;5084108;28;36953;-76
2021/01/14 11:10:42;;;;;;;6.13;1.30;;;3.60;99.90;;;;;;5095493;28;37153;-77
2021/01/14 11:13:13;;;;;;;7.40;1.70;;;3.70;99.90;;;;;;5078044;28;37510;-75
2021/01/14 11:15:41;;;;;;;8.20;1.70;;;3.80;99.90;;;;;;5074472;28;20586;-75
2021/01/14 11:18:09;;;;;;;4.63;1.23;;;3.80;99.90;;;;;;5093468;28;34649;-75
2021/01/14 11:20:35;;;;;;;6.10;1.47;;;3.70;99.90;;;;;;5090313;27;36316;-75
2021/01/14 11:23:01;;;;;;;6.80;1.77;;;3.70;99.90;;;;;;5076355;28;37808;-75
2021/01/14 11:25:30;;;;;;;6.87;1.70;;;3.70;99.90;;;;;;5054384;28;37679;-74
2021/01/14 11:27:57;;;;;;;6.27;1.30;;;3.60;99.90;;;;;;5086919;28;37248;-77
2021/01/14 11:30:24;;;;;;;9.97;2.03;;;3.60;99.90;;;;;;5070855;28;36007;-75
2021/01/14 11:32:50;;;;;;;6.20;1.63;;;3.60;99.90;;;;;;5083747;27;39319;-75
2021/01/14 11:35:16;;;;;;;4.53;1.33;;;3.80;99.90;;;;;;5076512;28;38341;-76
2021/01/14 11:37:42;;;;;;;8.73;1.77;;;3.80;99.90;;;;;;5080695;28;38607;-75
2021/01/14 11:40:09;;;;;;;10.30;1.80;;;3.80;99.90;;;;;;5087392;28;37851;-77
2021/01/14 11:42:35;;;;;;;4.93;1.53;;;3.80;99.90;;;;;;5070515;28;39178;-76
2021/01/14 11:45:02;;;;;;;7.53;2.27;;;3.90;99.90;;;;;;5073391;28;39694;-76
2021/01/14 11:47:28;;;;;;;11.17;1.77;;;3.80;99.90;;;;;;5086806;28;37915;-76
2021/01/14 11:49:54;;;;;;;8.43;1.80;;;3.80;99.90;;;;;;5091155;28;37914;-76
2021/01/14 11:52:20;;;;;;;8.27;1.90;;;3.70;99.90;;;;;;5078485;28;38748;-77
2021/01/14 11:54:47;;;;;;;6.27;2.20;;;3.70;99.90;;;;;;5071570;28;38746;-75
2021/01/14 11:57:13;;;;;;;13.07;1.83;;;3.60;99.90;;;;;;5081013;28;38246;-76
2021/01/14 11:59:40;;;;;;;6.40;1.90;;;3.60;99.90;;;;;;5077699;28;36853;-77
2021/01/14 12:02:06;;;;;;;7.57;1.80;;;3.70;99.90;;;;;;5083726;28;39893;-76
2021/01/14 12:04:33;;;;;;;3.97;1.83;;;3.70;99.90;;;;;;5082260;28;38759;-76
2021/01/14 12:06:59;;;;;;;7.77;2.10;;;3.80;99.90;;;;;;5062714;28;37001;-77
2021/01/14 12:09:25;;;;;;;6.60;1.97;;;3.80;99.90;;;;;;5076607;28;38986;-76
2021/01/14 12:11:54;;;;;;;5.07;1.53;;;3.90;99.90;;;;;;5093136;28;38542;-76
2021/01/14 12:14:21;;;;;;;10.43;3.13;;;3.90;99.90;;;;;;5076244;28;37535;-76
2021/01/14 12:16:48;;;;;;;10.87;2.10;;;4.10;99.90;;;;;;5078957;27;37320;-77
2021/01/14 12:19:14;;;;;;;6.97;1.90;;;4.00;99.90;;;;;;5056032;28;37836;-77
2021/01/14 12:21:40;;;;;;;8.97;2.33;;;3.90;99.90;;;;;;5054889;28;37406;-76
2021/01/14 12:24:06;;;;;;;5.13;1.67;;;3.80;99.90;;;;;;5059062;28;38173;-76
2021/01/14 12:26:32;;;;;;;4.27;2.50;;;3.80;99.90;;;;;;5051822;28;37000;-77
2021/01/14 12:28:59;;;;;;;6.10;1.93;;;3.80;99.90;;;;;;5050551;28;36974;-76
2021/01/14 12:31:25;;;;;;;9.90;2.60;;;3.90;99.90;;;;;;5046624;28;40363;-76
2021/01/14 12:33:51;;;;;;;10.03;2.10;;;3.90;99.90;;;;;;5046662;28;39079;-77
2021/01/14 12:36:17;;;;;;;10.00;2.50;;;4.00;99.90;;;;;;5049890;28;37495;-76
2021/01/14 12:38:44;;;;;;;10.73;2.50;;;4.00;99.90;;;;;;5047474;28;37130;-78
2021/01/14 12:41:10;;;;;;;6.00;2.00;;;4.10;99.90;;;;;;5057768;28;38780;-76
2021/01/14 12:43:36;;;;;;;7.73;2.30;;;4.20;99.90;;;;;;5053080;28;38076;-77
2021/01/14 12:46:02;;;;;;;9.77;2.93;;;4.10;99.90;;;;;;5054980;28;38931;-76
2021/01/14 12:48:28;;;;;;;5.87;2.50;;;4.20;99.90;;;;;;5066781;28;36056;-76
2021/01/14 12:50:54;;;;;;;9.90;1.80;;;4.20;99.90;;;;;;5052799;28;38039;-76
2021/01/14 12:53:20;;;;;;;12.30;2.37;;;4.20;99.90;;;;;;5056235;28;37434;-76
2021/01/14 12:55:46;;;;;;;6.33;2.23;;;4.10;99.90;;;;;;5052015;28;37705;-77
2021/01/14 12:58:12;;;;;;;8.37;2.70;;;4.10;99.90;;;;;;5056839;28;38893;-77
2021/01/14 13:00:38;;;;;;;7.07;2.30;;;4.00;99.90;;;;;;5044818;28;39365;-77
2021/01/14 13:03:04;;;;;;;4.50;2.20;;;4.00;99.90;;;;;;5061489;28;38318;-77
2021/01/14 13:05:31;;;;;;;6.87;2.03;;;3.90;99.90;;;;;;5049976;28;37447;-77
2021/01/14 13:07:57;;;;;;;9.43;2.37;;;3.80;99.90;;;;;;5049132;28;38200;-77